Aérodrome :
LOGIN :

S'inscrire | Disclaimer

   EN    FR    IT 

 










Légende :    VFR   VFR Marginal   IFR   IFR Intensif   IFR Très Intensif
Visi : 
Plafond : 
>= 8 km
>= 3000ft
5 à 8 km
1000 à 3000 ft
1500m à 5 km
500 à 1000 ft
800 à 1500m
200 à 500 ft
< 800m
< 200 ft
Symboles :   Orages  Brouillard  Fortes neiges  Fortes précipitations  Vent > 20 kt
SIGMETs :   Divers  Orages  Givrage  Turbulence  Onde Orograph.  Cendres Volcan.







- Altitude de l'aérodrome : 15 ft
- Code IATA : FCO


LIRF - Roma Leonardo da Vinci Fiumicino

DERNIER METAR :
  • 251120Z 06005KT 9999 SCT040 11/05 Q1005 NOSIG

METARs EXPIRÉS :
  • 251050Z 07005KT 9999 SCT040 12/05 Q1005 NOSIG
  • 251020Z 06006KT 9999 SCT045 11/06 Q1005 NOSIG
  • 250950Z 05006KT 9999 SCT045 11/06 Q1006 NOSIG
  • 250920Z 05007KT 9999 SCT035 10/06 Q1006 NOSIG
  • 250850Z 04006KT 9999 FEW035 09/06 Q1006 NOSIG

TAF TAF LIRF
Valide du 25 à 12h jusqu'au 26 à 18h UTC


251100Z 2512/2618 07008KT 9999 SCT030
TEMPO 2512/2516 4000 SHRA
BECMG 2514/2516 01014KT
TEMPO 2518/2524 4000 RA
TEMPO 2600/2606 3000 SNRA
Pas de NOTAMs connus pour ce terrain.



MET'MAP, la Météo Aéronautique d'un coup d'oeil ! - Copyright ORBIFLY Décembre 2007 - Disclaimer

ORBIFLY MET'MAP TEAM :

Programmation & Développement : Alexandra Zaïnal
Conception & Développement : Baudouin d'Aumeries
Co-Programmation & Développement : Marc-Olivier Méhu
Soutien technique & logistique : Manuel Goepfert

Contact : metmap@orbifly.com




SOURCES & CREDITS :

   NOAA